sensor_id;sensor_type;location;lat;lon;timestamp;P1;durP1;ratioP1;P2;durP2;ratioP2
70705;SDS011;59320;52.316;10.870;2023-06-24T00:00:55;11.95;;;8.82;;
70705;SDS011;59320;52.316;10.870;2023-06-24T00:03:22;12.00;;;9.00;;
70705;SDS011;59320;52.316;10.870;2023-06-24T00:05:49;12.07;;;8.68;;
70705;SDS011;59320;52.316;10.870;2023-06-24T00:08:18;13.07;;;8.30;;
70705;SDS011;59320;52.316;10.870;2023-06-24T00:10:45;11.77;;;8.55;;
70705;SDS011;59320;52.316;10.870;2023-06-24T00:13:13;13.93;;;8.90;;
70705;SDS011;59320;52.316;10.870;2023-06-24T00:15:41;13.30;;;8.60;;
70705;SDS011;59320;52.316;10.870;2023-06-24T00:18:08;14.70;;;8.45;;
70705;SDS011;59320;52.316;10.870;2023-06-24T00:20:35;10.50;;;9.02;;
70705;SDS011;59320;52.316;10.870;2023-06-24T00:23:03;11.45;;;8.75;;
70705;SDS011;59320;52.316;10.870;2023-06-24T00:25:32;9.65;;;8.43;;
70705;SDS011;59320;52.316;10.870;2023-06-24T00:27:59;10.77;;;8.85;;
70705;SDS011;59320;52.316;10.870;2023-06-24T00:30:26;9.45;;;7.72;;
70705;SDS011;59320;52.316;10.870;2023-06-24T00:32:55;10.65;;;7.97;;
70705;SDS011;59320;52.316;10.870;2023-06-24T00:35:23;9.15;;;7.93;;
70705;SDS011;59320;52.316;10.870;2023-06-24T00:37:50;11.48;;;7.82;;
70705;SDS011;59320;52.316;10.870;2023-06-24T00:40:23;12.97;;;8.77;;
70705;SDS011;59320;52.316;10.870;2023-06-24T00:42:52;9.45;;;7.78;;
70705;SDS011;59320;52.316;10.870;2023-06-24T00:45:20;8.20;;;7.38;;
70705;SDS011;59320;52.316;10.870;2023-06-24T00:47:48;10.35;;;8.07;;
70705;SDS011;59320;52.316;10.870;2023-06-24T00:50:15;14.15;;;9.40;;
70705;SDS011;59320;52.316;10.870;2023-06-24T00:52:42;9.35;;;8.10;;
70705;SDS011;59320;52.316;10.870;2023-06-24T00:55:09;11.45;;;7.90;;
70705;SDS011;59320;52.316;10.870;2023-06-24T00:57:38;13.27;;;7.90;;
70705;SDS011;59320;52.316;10.870;2023-06-24T01:00:07;11.50;;;7.57;;
70705;SDS011;59320;52.316;10.870;2023-06-24T01:02:40;12.38;;;8.45;;
70705;SDS011;59320;52.316;10.870;2023-06-24T01:05:08;15.50;;;11.02;;
70705;SDS011;59320;52.316;10.870;2023-06-24T01:07:36;14.52;;;8.85;;
70705;SDS011;59320;52.316;10.870;2023-06-24T01:10:05;10.98;;;8.63;;
70705;SDS011;59320;52.316;10.870;2023-06-24T01:12:33;16.67;;;9.13;;
70705;SDS011;59320;52.316;10.870;2023-06-24T01:15:01;11.15;;;8.85;;
70705;SDS011;59320;52.316;10.870;2023-06-24T01:17:33;10.05;;;7.22;;
70705;SDS011;59320;52.316;10.870;2023-06-24T01:20:03;10.52;;;8.13;;
70705;SDS011;59320;52.316;10.870;2023-06-24T01:25:24;13.00;;;8.10;;
70705;SDS011;59320;52.316;10.870;2023-06-24T01:28:17;12.07;;;7.93;;
70705;SDS011;59320;52.316;10.870;2023-06-24T01:31:06;13.18;;;8.18;;
70705;SDS011;59320;52.316;10.870;2023-06-24T01:33:52;11.70;;;8.65;;
70705;SDS011;59320;52.316;10.870;2023-06-24T01:36:26;11.20;;;8.30;;
70705;SDS011;59320;52.316;10.870;2023-06-24T01:38:58;10.90;;;9.07;;
70705;SDS011;59320;52.316;10.870;2023-06-24T01:41:30;12.52;;;9.15;;
70705;SDS011;59320;52.316;10.870;2023-06-24T01:43:59;11.35;;;8.43;;
70705;SDS011;59320;52.316;10.870;2023-06-24T01:46:29;12.23;;;9.25;;
70705;SDS011;59320;52.316;10.870;2023-06-24T01:48:58;12.52;;;8.90;;
70705;SDS011;59320;52.316;10.870;2023-06-24T01:51:28;11.25;;;8.73;;
70705;SDS011;59320;52.316;10.870;2023-06-24T01:53:58;14.15;;;8.40;;
70705;SDS011;59320;52.316;10.870;2023-06-24T01:56:28;13.68;;;9.57;;
70705;SDS011;59320;52.316;10.870;2023-06-24T01:58:56;10.10;;;8.63;;
70705;SDS011;59320;52.316;10.870;2023-06-24T02:01:26;13.00;;;9.88;;
70705;SDS011;59320;52.316;10.870;2023-06-24T02:03:58;11.90;;;9.25;;
70705;SDS011;59320;52.316;10.870;2023-06-24T02:06:26;17.13;;;9.52;;
70705;SDS011;59320;52.316;10.870;2023-06-24T02:08:57;12.90;;;10.02;;
70705;SDS011;59320;52.316;10.870;2023-06-24T02:11:26;13.73;;;10.35;;
70705;SDS011;59320;52.316;10.870;2023-06-24T02:13:56;11.50;;;10.18;;
70705;SDS011;59320;52.316;10.870;2023-06-24T02:16:26;12.27;;;9.55;;
70705;SDS011;59320;52.316;10.870;2023-06-24T02:18:55;13.63;;;11.10;;
70705;SDS011;59320;52.316;10.870;2023-06-24T02:21:25;11.43;;;9.75;;
70705;SDS011;59320;52.316;10.870;2023-06-24T02:23:53;13.35;;;9.73;;
70705;SDS011;59320;52.316;10.870;2023-06-24T02:26:21;13.02;;;11.00;;
70705;SDS011;59320;52.316;10.870;2023-06-24T02:28:51;11.10;;;9.50;;
70705;SDS011;59320;52.316;10.870;2023-06-24T02:31:19;13.60;;;10.07;;
70705;SDS011;59320;52.316;10.870;2023-06-24T02:33:46;18.63;;;11.75;;
70705;SDS011;59320;52.316;10.870;2023-06-24T02:36:15;15.40;;;11.40;;
70705;SDS011;59320;52.316;10.870;2023-06-24T02:38:42;13.60;;;11.07;;
70705;SDS011;59320;52.316;10.870;2023-06-24T02:41:10;10.93;;;8.93;;
70705;SDS011;59320;52.316;10.870;2023-06-24T02:43:37;15.13;;;10.73;;
70705;SDS011;59320;52.316;10.870;2023-06-24T02:46:04;14.65;;;10.73;;
70705;SDS011;59320;52.316;10.870;2023-06-24T02:48:32;16.05;;;11.40;;
70705;SDS011;59320;52.316;10.870;2023-06-24T02:51:03;16.83;;;10.18;;
70705;SDS011;59320;52.316;10.870;2023-06-24T02:53:32;14.15;;;10.35;;
70705;SDS011;59320;52.316;10.870;2023-06-24T02:56:01;17.08;;;10.75;;
70705;SDS011;59320;52.316;10.870;2023-06-24T02:58:29;11.80;;;9.30;;
70705;SDS011;59320;52.316;10.870;2023-06-24T03:01:01;17.48;;;10.90;;
70705;SDS011;59320;52.316;10.870;2023-06-24T03:03:49;16.90;;;10.35;;
70705;SDS011;59320;52.316;10.870;2023-06-24T03:06:18;14.23;;;11.45;;
70705;SDS011;59320;52.316;10.870;2023-06-24T03:08:47;14.90;;;10.35;;
70705;SDS011;59320;52.316;10.870;2023-06-24T03:11:16;15.77;;;11.85;;
70705;SDS011;59320;52.316;10.870;2023-06-24T03:13:43;14.55;;;10.35;;
70705;SDS011;59320;52.316;10.870;2023-06-24T03:16:14;13.85;;;11.65;;
70705;SDS011;59320;52.316;10.870;2023-06-24T03:18:51;13.57;;;10.30;;
70705;SDS011;59320;52.316;10.870;2023-06-24T03:21:19;13.77;;;9.75;;
70705;SDS011;59320;52.316;10.870;2023-06-24T03:23:50;12.82;;;9.63;;
70705;SDS011;59320;52.316;10.870;2023-06-24T03:26:17;14.18;;;10.55;;
70705;SDS011;59320;52.316;10.870;2023-06-24T03:28:44;16.15;;;9.88;;
70705;SDS011;59320;52.316;10.870;2023-06-24T03:31:15;15.38;;;11.57;;
70705;SDS011;59320;52.316;10.870;2023-06-24T03:33:42;15.48;;;11.18;;
70705;SDS011;59320;52.316;10.870;2023-06-24T03:36:11;17.83;;;12.18;;
70705;SDS011;59320;52.316;10.870;2023-06-24T03:38:39;15.50;;;10.57;;
70705;SDS011;59320;52.316;10.870;2023-06-24T03:41:08;13.70;;;10.73;;
70705;SDS011;59320;52.316;10.870;2023-06-24T03:43:35;18.20;;;11.57;;
70705;SDS011;59320;52.316;10.870;2023-06-24T03:46:02;17.45;;;12.07;;
70705;SDS011;59320;52.316;10.870;2023-06-24T03:48:29;16.83;;;10.75;;
70705;SDS011;59320;52.316;10.870;2023-06-24T03:50:57;15.40;;;10.95;;
70705;SDS011;59320;52.316;10.870;2023-06-24T03:53:25;15.18;;;10.88;;
70705;SDS011;59320;52.316;10.870;2023-06-24T03:55:52;16.40;;;10.90;;
70705;SDS011;59320;52.316;10.870;2023-06-24T03:58:20;15.82;;;11.43;;
70705;SDS011;59320;52.316;10.870;2023-06-24T04:00:48;18.58;;;11.80;;
70705;SDS011;59320;52.316;10.870;2023-06-24T04:03:15;16.08;;;11.30;;
70705;SDS011;59320;52.316;10.870;2023-06-24T04:05:43;14.52;;;10.38;;
70705;SDS011;59320;52.316;10.870;2023-06-24T04:08:10;13.48;;;10.95;;
70705;SDS011;59320;52.316;10.870;2023-06-24T04:10:37;15.18;;;10.82;;
70705;SDS011;59320;52.316;10.870;2023-06-24T04:13:04;15.95;;;11.07;;
70705;SDS011;59320;52.316;10.870;2023-06-24T04:15:33;17.77;;;11.23;;
70705;SDS011;59320;52.316;10.870;2023-06-24T04:18:00;14.18;;;10.80;;
70705;SDS011;59320;52.316;10.870;2023-06-24T04:20:27;15.50;;;11.18;;
70705;SDS011;59320;52.316;10.870;2023-06-24T04:22:57;18.52;;;11.30;;
70705;SDS011;59320;52.316;10.870;2023-06-24T04:25:26;13.63;;;10.63;;
70705;SDS011;59320;52.316;10.870;2023-06-24T04:27:53;16.48;;;11.18;;
70705;SDS011;59320;52.316;10.870;2023-06-24T04:30:20;20.73;;;12.60;;
70705;SDS011;59320;52.316;10.870;2023-06-24T04:32:50;20.83;;;12.65;;
70705;SDS011;59320;52.316;10.870;2023-06-24T04:35:18;18.85;;;12.02;;
70705;SDS011;59320;52.316;10.870;2023-06-24T04:37:45;17.45;;;12.02;;
70705;SDS011;59320;52.316;10.870;2023-06-24T04:40:14;15.77;;;11.38;;
70705;SDS011;59320;52.316;10.870;2023-06-24T04:42:41;15.45;;;11.40;;
70705;SDS011;59320;52.316;10.870;2023-06-24T04:45:09;16.17;;;12.10;;
70705;SDS011;59320;52.316;10.870;2023-06-24T04:47:36;18.25;;;12.18;;
70705;SDS011;59320;52.316;10.870;2023-06-24T04:50:05;17.67;;;11.82;;
70705;SDS011;59320;52.316;10.870;2023-06-24T04:52:34;16.88;;;11.55;;
70705;SDS011;59320;52.316;10.870;2023-06-24T04:55:01;19.20;;;12.93;;
70705;SDS011;59320;52.316;10.870;2023-06-24T04:57:29;20.60;;;12.38;;
70705;SDS011;59320;52.316;10.870;2023-06-24T04:59:57;16.33;;;11.30;;
70705;SDS011;59320;52.316;10.870;2023-06-24T05:02:25;18.70;;;12.40;;
70705;SDS011;59320;52.316;10.870;2023-06-24T05:04:52;16.77;;;12.65;;
70705;SDS011;59320;52.316;10.870;2023-06-24T05:07:20;17.17;;;12.65;;
70705;SDS011;59320;52.316;10.870;2023-06-24T05:09:48;17.67;;;12.32;;
70705;SDS011;59320;52.316;10.870;2023-06-24T05:12:16;18.20;;;11.95;;
70705;SDS011;59320;52.316;10.870;2023-06-24T05:14:43;21.20;;;12.68;;
70705;SDS011;59320;52.316;10.870;2023-06-24T05:17:10;15.00;;;13.40;;
70705;SDS011;59320;52.316;10.870;2023-06-24T05:19:37;19.52;;;14.73;;
70705;SDS011;59320;52.316;10.870;2023-06-24T05:22:04;15.80;;;12.07;;
70705;SDS011;59320;52.316;10.870;2023-06-24T05:24:33;17.85;;;13.27;;
70705;SDS011;59320;52.316;10.870;2023-06-24T05:27:03;16.95;;;12.20;;
70705;SDS011;59320;52.316;10.870;2023-06-24T05:29:31;24.58;;;15.63;;
70705;SDS011;59320;52.316;10.870;2023-06-24T05:31:58;16.33;;;12.75;;
70705;SDS011;59320;52.316;10.870;2023-06-24T05:34:28;16.65;;;13.38;;
70705;SDS011;59320;52.316;10.870;2023-06-24T05:36:55;22.23;;;14.82;;
70705;SDS011;59320;52.316;10.870;2023-06-24T05:39:23;20.80;;;14.88;;
70705;SDS011;59320;52.316;10.870;2023-06-24T05:41:51;18.52;;;13.93;;
70705;SDS011;59320;52.316;10.870;2023-06-24T05:44:19;18.27;;;12.77;;
70705;SDS011;59320;52.316;10.870;2023-06-24T05:46:48;17.15;;;12.65;;
70705;SDS011;59320;52.316;10.870;2023-06-24T05:49:15;16.05;;;12.15;;
70705;SDS011;59320;52.316;10.870;2023-06-24T05:51:42;19.48;;;13.18;;
70705;SDS011;59320;52.316;10.870;2023-06-24T05:54:09;14.60;;;12.07;;
70705;SDS011;59320;52.316;10.870;2023-06-24T05:56:36;19.40;;;13.93;;
70705;SDS011;59320;52.316;10.870;2023-06-24T05:59:05;21.48;;;14.25;;
70705;SDS011;59320;52.316;10.870;2023-06-24T06:01:32;21.88;;;15.05;;
70705;SDS011;59320;52.316;10.870;2023-06-24T06:03:59;18.83;;;12.70;;
70705;SDS011;59320;52.316;10.870;2023-06-24T06:06:26;16.60;;;12.35;;
70705;SDS011;59320;52.316;10.870;2023-06-24T06:08:53;20.02;;;13.30;;
70705;SDS011;59320;52.316;10.870;2023-06-24T06:11:20;19.77;;;14.32;;
70705;SDS011;59320;52.316;10.870;2023-06-24T06:13:47;17.40;;;13.80;;
70705;SDS011;59320;52.316;10.870;2023-06-24T06:16:16;18.33;;;14.43;;
70705;SDS011;59320;52.316;10.870;2023-06-24T06:18:43;18.95;;;14.52;;
70705;SDS011;59320;52.316;10.870;2023-06-24T06:21:10;19.67;;;14.43;;
70705;SDS011;59320;52.316;10.870;2023-06-24T06:23:37;18.15;;;12.90;;
70705;SDS011;59320;52.316;10.870;2023-06-24T06:26:04;17.88;;;13.27;;
70705;SDS011;59320;52.316;10.870;2023-06-24T06:28:32;19.10;;;12.70;;
70705;SDS011;59320;52.316;10.870;2023-06-24T06:30:59;18.02;;;12.65;;
70705;SDS011;59320;52.316;10.870;2023-06-24T06:33:27;15.85;;;13.50;;
70705;SDS011;59320;52.316;10.870;2023-06-24T06:35:54;16.65;;;12.88;;
70705;SDS011;59320;52.316;10.870;2023-06-24T06:38:21;17.70;;;12.75;;
70705;SDS011;59320;52.316;10.870;2023-06-24T06:40:49;18.40;;;12.55;;
70705;SDS011;59320;52.316;10.870;2023-06-24T06:43:16;16.40;;;12.35;;
70705;SDS011;59320;52.316;10.870;2023-06-24T06:45:43;19.83;;;14.80;;
70705;SDS011;59320;52.316;10.870;2023-06-24T06:48:10;16.88;;;12.48;;
70705;SDS011;59320;52.316;10.870;2023-06-24T06:50:38;16.90;;;11.65;;
70705;SDS011;59320;52.316;10.870;2023-06-24T06:53:05;15.57;;;11.73;;
70705;SDS011;59320;52.316;10.870;2023-06-24T06:55:32;13.77;;;11.68;;
70705;SDS011;59320;52.316;10.870;2023-06-24T06:57:59;16.33;;;12.05;;
70705;SDS011;59320;52.316;10.870;2023-06-24T07:00:26;14.70;;;11.35;;
70705;SDS011;59320;52.316;10.870;2023-06-24T07:02:53;14.45;;;11.40;;
70705;SDS011;59320;52.316;10.870;2023-06-24T07:05:20;13.20;;;10.23;;
70705;SDS011;59320;52.316;10.870;2023-06-24T07:07:49;13.93;;;10.73;;
70705;SDS011;59320;52.316;10.870;2023-06-24T07:10:16;12.95;;;9.77;;
70705;SDS011;59320;52.316;10.870;2023-06-24T07:12:43;13.75;;;11.35;;
70705;SDS011;59320;52.316;10.870;2023-06-24T07:15:10;11.23;;;9.82;;
70705;SDS011;59320;52.316;10.870;2023-06-24T07:17:37;13.32;;;10.57;;
70705;SDS011;59320;52.316;10.870;2023-06-24T07:20:05;13.73;;;11.13;;
70705;SDS011;59320;52.316;10.870;2023-06-24T07:22:32;13.68;;;10.77;;
70705;SDS011;59320;52.316;10.870;2023-06-24T07:25:00;10.30;;;9.20;;
70705;SDS011;59320;52.316;10.870;2023-06-24T07:27:27;12.98;;;9.55;;
70705;SDS011;59320;52.316;10.870;2023-06-24T07:29:54;11.57;;;9.25;;
70705;SDS011;59320;52.316;10.870;2023-06-24T07:32:21;10.75;;;8.40;;
70705;SDS011;59320;52.316;10.870;2023-06-24T07:34:48;8.65;;;7.72;;
70705;SDS011;59320;52.316;10.870;2023-06-24T07:37:15;8.63;;;7.72;;
70705;SDS011;59320;52.316;10.870;2023-06-24T07:39:42;13.38;;;8.32;;
70705;SDS011;59320;52.316;10.870;2023-06-24T07:42:11;9.57;;;8.63;;
70705;SDS011;59320;52.316;10.870;2023-06-24T07:44:43;11.40;;;8.15;;
70705;SDS011;59320;52.316;10.870;2023-06-24T07:47:11;11.57;;;7.95;;
70705;SDS011;59320;52.316;10.870;2023-06-24T07:49:38;9.98;;;7.40;;
70705;SDS011;59320;52.316;10.870;2023-06-24T07:52:05;7.63;;;6.40;;
70705;SDS011;59320;52.316;10.870;2023-06-24T07:54:33;10.48;;;8.02;;
70705;SDS011;59320;52.316;10.870;2023-06-24T07:57:00;8.00;;;7.20;;
70705;SDS011;59320;52.316;10.870;2023-06-24T07:59:29;12.93;;;7.68;;
70705;SDS011;59320;52.316;10.870;2023-06-24T08:01:56;7.55;;;6.70;;
70705;SDS011;59320;52.316;10.870;2023-06-24T08:04:23;8.90;;;6.57;;
70705;SDS011;59320;52.316;10.870;2023-06-24T08:06:50;7.65;;;6.82;;
70705;SDS011;59320;52.316;10.870;2023-06-24T08:09:17;8.18;;;5.72;;
70705;SDS011;59320;52.316;10.870;2023-06-24T08:11:45;8.45;;;6.03;;
70705;SDS011;59320;52.316;10.870;2023-06-24T08:14:12;7.57;;;5.30;;
70705;SDS011;59320;52.316;10.870;2023-06-24T08:16:40;7.57;;;5.93;;
70705;SDS011;59320;52.316;10.870;2023-06-24T08:19:07;8.43;;;6.10;;
70705;SDS011;59320;52.316;10.870;2023-06-24T08:21:34;9.60;;;6.75;;
70705;SDS011;59320;52.316;10.870;2023-06-24T08:24:03;6.38;;;5.60;;
70705;SDS011;59320;52.316;10.870;2023-06-24T08:26:30;7.72;;;5.85;;
70705;SDS011;59320;52.316;10.870;2023-06-24T08:28:57;9.63;;;6.28;;
70705;SDS011;59320;52.316;10.870;2023-06-24T08:31:25;6.55;;;5.22;;
70705;SDS011;59320;52.316;10.870;2023-06-24T08:33:53;7.50;;;5.15;;
70705;SDS011;59320;52.316;10.870;2023-06-24T08:36:21;6.07;;;5.45;;
70705;SDS011;59320;52.316;10.870;2023-06-24T08:38:49;8.80;;;5.80;;
70705;SDS011;59320;52.316;10.870;2023-06-24T08:41:16;8.30;;;6.30;;
70705;SDS011;59320;52.316;10.870;2023-06-24T08:43:43;7.13;;;5.10;;
70705;SDS011;59320;52.316;10.870;2023-06-24T08:46:11;7.32;;;5.00;;
70705;SDS011;59320;52.316;10.870;2023-06-24T08:48:39;5.43;;;4.90;;
70705;SDS011;59320;52.316;10.870;2023-06-24T08:51:10;7.10;;;4.85;;
70705;SDS011;59320;52.316;10.870;2023-06-24T08:53:41;5.70;;;4.60;;
70705;SDS011;59320;52.316;10.870;2023-06-24T08:56:09;4.43;;;4.03;;
70705;SDS011;59320;52.316;10.870;2023-06-24T08:58:37;4.15;;;3.75;;
70705;SDS011;59320;52.316;10.870;2023-06-24T09:01:04;6.95;;;5.57;;
70705;SDS011;59320;52.316;10.870;2023-06-24T09:03:33;5.97;;;4.38;;
70705;SDS011;59320;52.316;10.870;2023-06-24T09:06:00;5.15;;;4.40;;
70705;SDS011;59320;52.316;10.870;2023-06-24T09:08:29;6.22;;;4.97;;
70705;SDS011;59320;52.316;10.870;2023-06-24T09:10:56;5.60;;;4.53;;
70705;SDS011;59320;52.316;10.870;2023-06-24T09:13:27;5.90;;;5.15;;
70705;SDS011;59320;52.316;10.870;2023-06-24T09:16:08;6.07;;;4.75;;
70705;SDS011;59320;52.316;10.870;2023-06-24T09:18:38;4.93;;;4.13;;
70705;SDS011;59320;52.316;10.870;2023-06-24T09:21:05;7.07;;;4.63;;
70705;SDS011;59320;52.316;10.870;2023-06-24T09:23:36;4.43;;;4.03;;
70705;SDS011;59320;52.316;10.870;2023-06-24T09:26:05;6.50;;;4.82;;
70705;SDS011;59320;52.316;10.870;2023-06-24T09:28:37;4.35;;;3.90;;
70705;SDS011;59320;52.316;10.870;2023-06-24T09:31:05;6.80;;;4.38;;
70705;SDS011;59320;52.316;10.870;2023-06-24T09:33:32;4.95;;;3.97;;
70705;SDS011;59320;52.316;10.870;2023-06-24T09:36:01;5.40;;;4.55;;
70705;SDS011;59320;52.316;10.870;2023-06-24T09:38:33;6.82;;;4.30;;
70705;SDS011;59320;52.316;10.870;2023-06-24T09:41:02;4.82;;;3.42;;
70705;SDS011;59320;52.316;10.870;2023-06-24T09:43:30;6.05;;;4.70;;
70705;SDS011;59320;52.316;10.870;2023-06-24T09:46:00;4.93;;;4.20;;
70705;SDS011;59320;52.316;10.870;2023-06-24T09:48:28;4.45;;;4.00;;
70705;SDS011;59320;52.316;10.870;2023-06-24T09:50:55;6.90;;;3.90;;
70705;SDS011;59320;52.316;10.870;2023-06-24T09:53:27;5.13;;;4.18;;
70705;SDS011;59320;52.316;10.870;2023-06-24T09:55:58;6.28;;;4.78;;
70705;SDS011;59320;52.316;10.870;2023-06-24T09:58:26;5.22;;;3.53;;
70705;SDS011;59320;52.316;10.870;2023-06-24T10:00:57;6.15;;;4.43;;
70705;SDS011;59320;52.316;10.870;2023-06-24T10:03:27;5.72;;;4.28;;
70705;SDS011;59320;52.316;10.870;2023-06-24T10:05:54;4.20;;;3.80;;
70705;SDS011;59320;52.316;10.870;2023-06-24T10:08:22;5.25;;;3.88;;
70705;SDS011;59320;52.316;10.870;2023-06-24T10:10:49;4.70;;;3.67;;
70705;SDS011;59320;52.316;10.870;2023-06-24T10:13:18;5.43;;;3.90;;
70705;SDS011;59320;52.316;10.870;2023-06-24T10:15:45;5.90;;;3.95;;
70705;SDS011;59320;52.316;10.870;2023-06-24T10:20:58;4.05;;;3.63;;
70705;SDS011;59320;52.316;10.870;2023-06-24T10:23:29;4.25;;;3.83;;
70705;SDS011;59320;52.316;10.870;2023-06-24T10:25:57;4.30;;;3.60;;
70705;SDS011;59320;52.316;10.870;2023-06-24T10:28:26;4.25;;;3.50;;
70705;SDS011;59320;52.316;10.870;2023-06-24T10:30:56;5.90;;;3.42;;
70705;SDS011;59320;52.316;10.870;2023-06-24T10:33:23;6.00;;;4.00;;
70705;SDS011;59320;52.316;10.870;2023-06-24T10:35:51;5.22;;;3.80;;
70705;SDS011;59320;52.316;10.870;2023-06-24T10:38:18;6.00;;;3.83;;
70705;SDS011;59320;52.316;10.870;2023-06-24T10:40:46;6.20;;;3.85;;
70705;SDS011;59320;52.316;10.870;2023-06-24T10:46:06;4.10;;;3.47;;
70705;SDS011;59320;52.316;10.870;2023-06-24T10:48:41;5.63;;;3.88;;
70705;SDS011;59320;52.316;10.870;2023-06-24T10:51:08;4.47;;;3.25;;
70705;SDS011;59320;52.316;10.870;2023-06-24T10:53:35;5.32;;;3.30;;
70705;SDS011;59320;52.316;10.870;2023-06-24T10:56:03;5.25;;;3.85;;
70705;SDS011;59320;52.316;10.870;2023-06-24T10:58:31;5.72;;;3.58;;
70705;SDS011;59320;52.316;10.870;2023-06-24T11:01:07;5.95;;;3.30;;
70705;SDS011;59320;52.316;10.870;2023-06-24T11:03:35;4.28;;;3.20;;
70705;SDS011;59320;52.316;10.870;2023-06-24T11:06:07;5.80;;;3.22;;
70705;SDS011;59320;52.316;10.870;2023-06-24T11:08:42;3.65;;;3.35;;
70705;SDS011;59320;52.316;10.870;2023-06-24T11:11:10;3.75;;;2.95;;
70705;SDS011;59320;52.316;10.870;2023-06-24T11:13:45;6.13;;;3.42;;
70705;SDS011;59320;52.316;10.870;2023-06-24T11:16:16;5.47;;;3.13;;
70705;SDS011;59320;52.316;10.870;2023-06-24T11:18:47;4.97;;;3.65;;
70705;SDS011;59320;52.316;10.870;2023-06-24T11:21:14;5.32;;;3.70;;
70705;SDS011;59320;52.316;10.870;2023-06-24T11:23:41;5.05;;;3.03;;
70705;SDS011;59320;52.316;10.870;2023-06-24T11:26:08;3.65;;;3.05;;
70705;SDS011;59320;52.316;10.870;2023-06-24T11:28:37;3.50;;;3.20;;
70705;SDS011;59320;52.316;10.870;2023-06-24T11:31:06;3.67;;;2.92;;
70705;SDS011;59320;52.316;10.870;2023-06-24T11:33:35;3.58;;;3.00;;
70705;SDS011;59320;52.316;10.870;2023-06-24T11:36:02;4.97;;;3.20;;
70705;SDS011;59320;52.316;10.870;2023-06-24T11:41:02;4.40;;;2.95;;
70705;SDS011;59320;52.316;10.870;2023-06-24T11:43:29;3.83;;;2.85;;
70705;SDS011;59320;52.316;10.870;2023-06-24T11:45:56;3.60;;;3.30;;
70705;SDS011;59320;52.316;10.870;2023-06-24T11:48:26;4.65;;;3.22;;
70705;SDS011;59320;52.316;10.870;2023-06-24T11:50:55;4.38;;;3.00;;
70705;SDS011;59320;52.316;10.870;2023-06-24T11:53:28;3.88;;;3.25;;
70705;SDS011;59320;52.316;10.870;2023-06-24T11:58:23;4.75;;;3.28;;
70705;SDS011;59320;52.316;10.870;2023-06-24T12:00:50;5.65;;;3.20;;
70705;SDS011;59320;52.316;10.870;2023-06-24T12:03:22;3.80;;;3.40;;
70705;SDS011;59320;52.316;10.870;2023-06-24T12:05:50;3.83;;;3.20;;
70705;SDS011;59320;52.316;10.870;2023-06-24T12:08:18;6.70;;;3.50;;
70705;SDS011;59320;52.316;10.870;2023-06-24T12:10:48;4.50;;;3.15;;
70705;SDS011;59320;52.316;10.870;2023-06-24T12:13:15;4.60;;;2.97;;
70705;SDS011;59320;52.316;10.870;2023-06-24T12:15:42;3.83;;;3.30;;
70705;SDS011;59320;52.316;10.870;2023-06-24T12:18:09;4.07;;;3.28;;
70705;SDS011;59320;52.316;10.870;2023-06-24T12:20:36;3.38;;;3.08;;
70705;SDS011;59320;52.316;10.870;2023-06-24T12:23:03;4.15;;;2.90;;
70705;SDS011;59320;52.316;10.870;2023-06-24T12:25:32;3.30;;;3.00;;
70705;SDS011;59320;52.316;10.870;2023-06-24T12:27:59;3.28;;;2.75;;
70705;SDS011;59320;52.316;10.870;2023-06-24T12:30:26;6.13;;;2.78;;
70705;SDS011;59320;52.316;10.870;2023-06-24T12:32:53;4.15;;;2.65;;
70705;SDS011;59320;52.316;10.870;2023-06-24T12:35:21;3.78;;;3.38;;
70705;SDS011;59320;52.316;10.870;2023-06-24T12:37:50;3.72;;;2.92;;
70705;SDS011;59320;52.316;10.870;2023-06-24T12:40:18;4.28;;;3.08;;
70705;SDS011;59320;52.316;10.870;2023-06-24T12:42:46;3.08;;;2.78;;
70705;SDS011;59320;52.316;10.870;2023-06-24T12:45:13;4.03;;;3.08;;
70705;SDS011;59320;52.316;10.870;2023-06-24T12:47:40;3.53;;;3.00;;
70705;SDS011;59320;52.316;10.870;2023-06-24T12:50:08;5.05;;;3.20;;
70705;SDS011;59320;52.316;10.870;2023-06-24T12:52:35;4.20;;;3.00;;
70705;SDS011;59320;52.316;10.870;2023-06-24T12:55:04;4.72;;;3.08;;
70705;SDS011;59320;52.316;10.870;2023-06-24T12:57:32;3.80;;;2.92;;
70705;SDS011;59320;52.316;10.870;2023-06-24T13:00:00;3.33;;;2.75;;
70705;SDS011;59320;52.316;10.870;2023-06-24T13:02:30;4.93;;;3.05;;
70705;SDS011;59320;52.316;10.870;2023-06-24T13:04:57;4.38;;;3.08;;
70705;SDS011;59320;52.316;10.870;2023-06-24T13:07:24;2.83;;;2.58;;
70705;SDS011;59320;52.316;10.870;2023-06-24T13:09:51;3.40;;;2.95;;
70705;SDS011;59320;52.316;10.870;2023-06-24T13:12:19;3.40;;;3.10;;
70705;SDS011;59320;52.316;10.870;2023-06-24T13:14:46;5.80;;;3.05;;
70705;SDS011;59320;52.316;10.870;2023-06-24T13:17:15;5.95;;;2.85;;
70705;SDS011;59320;52.316;10.870;2023-06-24T13:19:42;4.75;;;3.08;;
70705;SDS011;59320;52.316;10.870;2023-06-24T13:22:09;4.90;;;3.60;;
70705;SDS011;59320;52.316;10.870;2023-06-24T13:24:36;4.30;;;3.20;;
70705;SDS011;59320;52.316;10.870;2023-06-24T13:27:03;6.93;;;3.35;;
70705;SDS011;59320;52.316;10.870;2023-06-24T13:29:30;3.55;;;3.17;;
70705;SDS011;59320;52.316;10.870;2023-06-24T13:31:57;3.40;;;3.10;;
70705;SDS011;59320;52.316;10.870;2023-06-24T13:34:26;4.60;;;3.05;;
70705;SDS011;59320;52.316;10.870;2023-06-24T13:36:53;4.35;;;2.85;;
70705;SDS011;59320;52.316;10.870;2023-06-24T13:39:20;3.58;;;3.10;;
70705;SDS011;59320;52.316;10.870;2023-06-24T13:41:49;3.70;;;2.97;;
70705;SDS011;59320;52.316;10.870;2023-06-24T13:44:17;3.17;;;2.88;;
70705;SDS011;59320;52.316;10.870;2023-06-24T13:46:45;5.40;;;3.33;;
70705;SDS011;59320;52.316;10.870;2023-06-24T13:49:12;4.05;;;3.17;;
70705;SDS011;59320;52.316;10.870;2023-06-24T13:54:16;3.35;;;3.05;;
70705;SDS011;59320;52.316;10.870;2023-06-24T13:56:44;5.97;;;3.58;;
70705;SDS011;59320;52.316;10.870;2023-06-24T13:59:11;4.35;;;3.53;;
70705;SDS011;59320;52.316;10.870;2023-06-24T14:01:38;4.05;;;3.10;;
70705;SDS011;59320;52.316;10.870;2023-06-24T14:04:05;3.40;;;3.10;;
70705;SDS011;59320;52.316;10.870;2023-06-24T14:06:32;3.92;;;3.03;;
70705;SDS011;59320;52.316;10.870;2023-06-24T14:09:00;3.90;;;2.97;;
70705;SDS011;59320;52.316;10.870;2023-06-24T14:11:27;3.97;;;3.17;;
70705;SDS011;59320;52.316;10.870;2023-06-24T14:13:54;4.22;;;2.85;;
70705;SDS011;59320;52.316;10.870;2023-06-24T14:16:21;3.53;;;3.10;;
70705;SDS011;59320;52.316;10.870;2023-06-24T14:18:48;4.78;;;3.15;;
70705;SDS011;59320;52.316;10.870;2023-06-24T14:21:16;4.07;;;3.00;;
70705;SDS011;59320;52.316;10.870;2023-06-24T14:23:43;4.30;;;2.97;;
70705;SDS011;59320;52.316;10.870;2023-06-24T14:26:11;4.63;;;3.30;;
70705;SDS011;59320;52.316;10.870;2023-06-24T14:28:38;3.58;;;3.28;;
70705;SDS011;59320;52.316;10.870;2023-06-24T14:31:05;4.03;;;3.50;;
70705;SDS011;59320;52.316;10.870;2023-06-24T14:33:32;3.75;;;3.22;;
70705;SDS011;59320;52.316;10.870;2023-06-24T14:35:59;6.50;;;3.60;;
70705;SDS011;59320;52.316;10.870;2023-06-24T14:38:27;3.83;;;3.50;;
70705;SDS011;59320;52.316;10.870;2023-06-24T14:40:54;4.32;;;3.33;;
70705;SDS011;59320;52.316;10.870;2023-06-24T14:43:23;3.72;;;3.30;;
70705;SDS011;59320;52.316;10.870;2023-06-24T14:45:50;3.42;;;3.13;;